createdAt,value
2017-03-08T00:00:35.155Z,19.01
2017-03-08T00:01:35.158Z,19.00
2017-03-08T00:02:34.209Z,19.00
2017-03-08T00:03:42.586Z,18.99
2017-03-08T00:04:43.882Z,18.99
2017-03-08T00:05:50.040Z,18.99
2017-03-08T00:06:33.537Z,18.99
2017-03-08T00:07:40.838Z,18.99
2017-03-08T00:08:39.387Z,18.98
2017-03-08T00:09:40.104Z,18.98
2017-03-08T00:10:33.974Z,18.99
2017-03-08T00:11:39.027Z,18.98
2017-03-08T00:12:33.783Z,18.98
2017-03-08T00:13:39.890Z,18.98
2017-03-08T00:14:33.885Z,18.99
2017-03-08T00:15:50.604Z,18.98
2017-03-08T00:16:39.613Z,18.98
2017-03-08T00:17:48.181Z,18.98
2017-03-08T00:18:38.358Z,18.98
2017-03-08T00:19:38.177Z,18.98
2017-03-08T00:20:49.149Z,18.98
2017-03-08T00:21:49.341Z,18.97
2017-03-08T00:22:33.338Z,18.98
2017-03-08T00:23:48.817Z,18.97
2017-03-08T00:24:34.178Z,18.98
2017-03-08T00:25:33.544Z,18.98
2017-03-08T00:26:36.761Z,18.98
2017-03-08T00:27:39.288Z,18.97
2017-03-08T00:28:37.673Z,18.95
2017-03-08T00:29:38.998Z,18.97
2017-03-08T00:30:33.210Z,19.00
2017-03-08T00:31:43.799Z,18.97
2017-03-08T00:32:32.814Z,18.98
2017-03-08T00:33:39.753Z,18.97
2017-03-08T00:34:38.908Z,18.96
2017-03-08T00:35:33.939Z,18.97
2017-03-08T00:36:38.017Z,19.11
2017-03-08T00:37:34.865Z,19.01
2017-03-08T00:38:27.699Z,18.99
2017-03-08T00:39:38.454Z,18.97
2017-03-08T00:40:44.475Z,18.98
2017-03-08T00:41:48.726Z,18.96
2017-03-08T00:42:42.494Z,18.97
2017-03-08T00:43:34.524Z,18.97
2017-03-08T00:44:33.665Z,18.96
2017-03-08T00:45:40.097Z,18.97
2017-03-08T00:46:39.323Z,18.97
2017-03-08T00:47:34.401Z,18.97
2017-03-08T00:48:44.843Z,18.96
2017-03-08T00:49:39.305Z,18.96
2017-03-08T00:50:49.078Z,18.96
2017-03-08T00:51:33.255Z,18.96
2017-03-08T00:52:49.442Z,19.03
2017-03-08T00:53:38.580Z,18.96
2017-03-08T00:55:04.538Z,19.00
2017-03-08T00:55:42.629Z,18.96
2017-03-08T00:56:34.612Z,18.96
2017-03-08T00:57:34.357Z,18.96
2017-03-08T00:58:53.963Z,18.96
2017-03-08T00:59:41.331Z,18.96
2017-03-08T01:00:34.541Z,18.95
2017-03-08T01:01:38.295Z,18.95
2017-03-08T01:02:34.539Z,18.96
2017-03-08T01:03:43.815Z,18.96
2017-03-08T01:04:28.135Z,18.96
2017-03-08T01:05:50.537Z,18.96
2017-03-08T01:06:34.203Z,18.96
2017-03-08T01:07:33.818Z,18.97
2017-03-08T01:08:33.720Z,18.95
2017-03-08T01:09:33.658Z,18.95
2017-03-08T01:10:39.043Z,18.94
2017-03-08T01:11:49.122Z,18.95
2017-03-08T01:12:33.191Z,18.95
2017-03-08T01:13:48.481Z,18.97
2017-03-08T01:14:42.580Z,18.95
2017-03-08T01:15:43.618Z,18.95
2017-03-08T01:16:34.504Z,18.95
2017-03-08T01:17:39.634Z,18.94
2017-03-08T01:18:38.461Z,18.95
2017-03-08T01:19:38.752Z,18.94
2017-03-08T01:20:33.622Z,18.94
2017-03-08T01:21:48.496Z,18.94
2017-03-08T01:22:32.768Z,18.94
2017-03-08T01:23:39.554Z,18.94
2017-03-08T01:24:34.143Z,18.94
2017-03-08T01:25:38.973Z,18.94
2017-03-08T01:26:37.997Z,18.94
2017-03-08T01:27:56.831Z,18.94
2017-03-08T01:28:35.125Z,18.94
2017-03-08T01:29:38.249Z,18.94
2017-03-08T01:30:39.653Z,18.94
2017-03-08T01:31:41.360Z,18.93
2017-03-08T01:32:34.734Z,18.95
2017-03-08T01:33:34.714Z,18.94
2017-03-08T01:34:34.613Z,18.93
2017-03-08T01:35:33.738Z,18.94
2017-03-08T01:36:32.223Z,18.93
2017-03-08T01:37:33.055Z,18.93
2017-03-08T01:38:35.875Z,18.94
2017-03-08T01:39:34.554Z,18.93
2017-03-08T01:40:30.741Z,18.94
2017-03-08T01:41:47.250Z,18.94
2017-03-08T01:42:35.847Z,18.93
2017-03-08T01:43:35.235Z,18.93
2017-03-08T01:44:39.894Z,18.93
2017-03-08T01:45:50.306Z,18.93
2017-03-08T01:46:49.404Z,18.94
2017-03-08T01:47:48.384Z,18.93
2017-03-08T01:48:54.014Z,18.93
2017-03-08T01:49:37.919Z,18.94
2017-03-08T01:50:44.230Z,18.93
2017-03-08T01:51:29.226Z,18.93
2017-03-08T01:52:35.524Z,18.93
2017-03-08T01:53:33.806Z,18.93
2017-03-08T01:54:42.631Z,18.93
2017-03-08T01:55:33.124Z,18.93
2017-03-08T01:56:50.906Z,18.93
2017-03-08T01:57:39.883Z,18.93
2017-03-08T01:58:33.945Z,18.93
2017-03-08T01:59:39.083Z,18.93
2017-03-08T02:00:34.352Z,18.94
2017-03-08T02:01:32.639Z,18.93
2017-03-08T02:02:34.887Z,18.94
2017-03-08T02:03:39.745Z,18.93
2017-03-08T02:04:40.370Z,18.93
2017-03-08T02:05:39.141Z,18.93
2017-03-08T02:06:33.897Z,18.93
2017-03-08T02:07:28.778Z,18.92
2017-03-08T02:08:40.173Z,18.93
2017-03-08T02:09:34.480Z,18.95
2017-03-08T02:10:34.235Z,18.93
2017-03-08T02:12:34.153Z,18.93
2017-03-08T02:13:45.062Z,18.92
2017-03-08T02:14:35.117Z,18.93
2017-03-08T02:15:39.137Z,18.93
2017-03-08T02:16:39.621Z,18.92
2017-03-08T02:17:39.133Z,18.92
2017-03-08T02:18:33.373Z,18.92
2017-03-08T02:19:40.312Z,18.92
2017-03-08T02:20:43.025Z,18.91
2017-03-08T02:21:54.204Z,18.92
2017-03-08T02:22:32.893Z,18.92
2017-03-08T02:23:52.313Z,18.92
2017-03-08T02:24:50.375Z,18.92
2017-03-08T02:25:49.883Z,18.92
2017-03-08T02:26:39.198Z,18.92
2017-03-08T02:27:58.513Z,18.92
2017-03-08T02:28:41.630Z,18.91
2017-03-08T02:29:47.957Z,18.92
2017-03-08T02:30:50.355Z,18.92
2017-03-08T02:31:39.417Z,18.92
2017-03-08T02:32:34.538Z,18.91
2017-03-08T02:33:36.934Z,18.91
2017-03-08T02:34:33.678Z,18.91
2017-03-08T02:35:34.836Z,18.92
2017-03-08T02:36:34.103Z,18.91
2017-03-08T02:37:46.962Z,18.91
2017-03-08T02:38:35.717Z,18.92
2017-03-08T02:39:28.462Z,18.96
2017-03-08T02:40:42.549Z,18.91
2017-03-08T02:41:33.914Z,18.91
2017-03-08T02:42:39.353Z,19.46
2017-03-08T02:43:48.774Z,19.50
2017-03-08T02:44:38.132Z,19.53
2017-03-08T02:45:35.195Z,19.17
2017-03-08T02:46:44.013Z,19.02
2017-03-08T02:47:38.339Z,19.04
2017-03-08T02:48:41.911Z,18.95
2017-03-08T02:49:34.098Z,18.94
2017-03-08T02:50:38.651Z,18.93
2017-03-08T02:51:33.687Z,18.93
2017-03-08T02:52:45.666Z,18.92
2017-03-08T02:53:42.200Z,18.92
2017-03-08T02:54:49.746Z,18.92
2017-03-08T02:55:33.511Z,18.92
2017-03-08T02:56:46.932Z,18.92
2017-03-08T02:57:33.234Z,18.93
2017-03-08T02:58:56.897Z,18.98
2017-03-08T02:59:44.937Z,18.92
2017-03-08T03:00:48.880Z,18.92
2017-03-08T03:01:43.430Z,18.92
2017-03-08T03:02:34.255Z,18.92
2017-03-08T03:03:34.412Z,18.92
2017-03-08T03:04:37.083Z,18.92
2017-03-08T03:05:33.637Z,18.91
2017-03-08T03:06:34.340Z,18.92
2017-03-08T03:07:34.392Z,18.94
2017-03-08T03:08:42.671Z,19.05
2017-03-08T03:09:37.363Z,18.97
2017-03-08T03:10:33.221Z,18.94
2017-03-08T03:11:35.761Z,18.93
2017-03-08T03:12:34.440Z,18.92
2017-03-08T03:13:39.456Z,18.92
2017-03-08T03:14:33.059Z,18.93
2017-03-08T03:15:39.954Z,18.91
2017-03-08T03:16:35.249Z,18.92
2017-03-08T03:17:45.199Z,18.91
2017-03-08T03:18:33.719Z,18.91
2017-03-08T03:19:49.485Z,19.45
2017-03-08T03:20:33.256Z,19.50
2017-03-08T03:21:44.406Z,19.53
2017-03-08T03:22:48.287Z,19.54
2017-03-08T03:23:38.020Z,19.23
2017-03-08T03:24:39.193Z,19.03
2017-03-08T03:25:49.887Z,18.98
2017-03-08T03:26:48.276Z,18.95
2017-03-08T03:27:48.375Z,18.93
2017-03-08T03:28:39.433Z,18.96
2017-03-08T03:29:54.169Z,18.93
2017-03-08T03:30:43.011Z,18.94
2017-03-08T03:31:38.441Z,18.92
2017-03-08T03:32:38.980Z,18.92
2017-03-08T03:33:34.083Z,18.92
2017-03-08T03:34:39.412Z,18.92
2017-03-08T03:35:38.923Z,18.92
2017-03-08T03:36:42.261Z,18.91
2017-03-08T03:37:34.371Z,18.91
2017-03-08T03:38:34.544Z,18.91
2017-03-08T03:39:32.784Z,18.91
2017-03-08T03:40:47.290Z,18.91
2017-03-08T03:41:35.905Z,18.91
2017-03-08T03:42:38.840Z,18.92
2017-03-08T03:43:39.375Z,18.91
2017-03-08T03:44:48.596Z,18.90
2017-03-08T03:45:47.488Z,18.91
2017-03-08T03:46:47.241Z,18.93
2017-03-08T03:47:41.609Z,18.91
2017-03-08T03:48:33.808Z,18.91
2017-03-08T03:49:57.606Z,18.91
2017-03-08T03:50:51.111Z,18.92
2017-03-08T03:51:33.051Z,18.91
2017-03-08T03:53:05.960Z,18.91
2017-03-08T03:53:48.048Z,18.91
2017-03-08T03:54:48.089Z,18.91
2017-03-08T03:55:33.387Z,18.91
2017-03-08T03:56:39.401Z,18.91
2017-03-08T03:57:34.220Z,18.91
2017-03-08T03:58:49.637Z,18.92
2017-03-08T03:59:34.620Z,18.91
2017-03-08T04:00:36.039Z,18.90
2017-03-08T04:01:50.856Z,18.91
2017-03-08T04:02:34.514Z,18.91
2017-03-08T04:03:42.613Z,18.91
2017-03-08T04:04:40.623Z,18.91
2017-03-08T04:05:40.002Z,18.91
2017-03-08T04:06:34.258Z,18.91
2017-03-08T04:07:39.318Z,18.91
2017-03-08T04:08:39.851Z,18.91
2017-03-08T04:09:51.612Z,18.91
2017-03-08T04:10:40.729Z,18.91
2017-03-08T04:11:40.646Z,18.90
2017-03-08T04:12:39.117Z,18.91
2017-03-08T04:13:50.951Z,18.91
2017-03-08T04:14:44.331Z,18.90
2017-03-08T04:15:51.070Z,18.90
2017-03-08T04:16:39.696Z,18.90
2017-03-08T04:17:48.726Z,18.90
2017-03-08T04:18:36.439Z,18.94
2017-03-08T04:19:48.776Z,18.91
2017-03-08T04:20:38.270Z,18.90
2017-03-08T04:21:36.985Z,18.90
2017-03-08T04:22:34.186Z,18.96
2017-03-08T04:23:38.278Z,18.90
2017-03-08T04:24:34.188Z,18.90
2017-03-08T04:25:53.849Z,18.90
2017-03-08T04:26:42.854Z,18.90
2017-03-08T04:27:34.846Z,18.90
2017-03-08T04:28:38.309Z,18.90
2017-03-08T04:29:32.678Z,18.90
2017-03-08T04:30:34.719Z,18.89
2017-03-08T04:31:38.777Z,18.90
2017-03-08T04:32:38.488Z,18.90
2017-03-08T04:33:34.621Z,18.91
2017-03-08T04:34:39.059Z,18.90
2017-03-08T04:35:39.527Z,18.89
2017-03-08T04:36:31.640Z,18.89
2017-03-08T04:37:38.362Z,18.90
2017-03-08T04:38:38.896Z,18.90
2017-03-08T04:39:35.079Z,18.90
2017-03-08T04:40:38.766Z,18.89
2017-03-08T04:41:44.862Z,18.89
2017-03-08T04:42:38.745Z,18.89
2017-03-08T04:43:33.555Z,18.90
2017-03-08T04:44:40.557Z,18.89
2017-03-08T04:45:35.112Z,18.90
2017-03-08T04:46:44.117Z,18.89
2017-03-08T04:47:33.265Z,18.90
2017-03-08T04:48:42.840Z,18.90
2017-03-08T04:49:34.058Z,18.90
2017-03-08T04:50:44.682Z,18.90
2017-03-08T04:51:39.538Z,18.90
2017-03-08T04:52:48.194Z,18.90
2017-03-08T04:53:32.906Z,18.90
2017-03-08T04:54:49.331Z,18.90
2017-03-08T04:55:40.032Z,18.92
2017-03-08T04:56:29.753Z,19.43
2017-03-08T04:57:38.144Z,19.50
2017-03-08T04:58:39.866Z,19.52
2017-03-08T04:59:39.424Z,19.53
2017-03-08T05:00:37.433Z,19.54
2017-03-08T05:01:43.476Z,19.03
2017-03-08T05:02:39.286Z,18.97
2017-03-08T05:03:42.990Z,18.95
2017-03-08T05:04:39.620Z,18.93
2017-03-08T05:06:34.660Z,18.91
2017-03-08T05:07:39.647Z,18.91
2017-03-08T05:08:33.691Z,18.89
2017-03-08T05:09:42.527Z,18.94
2017-03-08T05:10:33.547Z,18.91
2017-03-08T05:11:48.416Z,18.90
2017-03-08T05:12:32.718Z,18.90
2017-03-08T05:13:49.292Z,18.90
2017-03-08T05:14:38.653Z,18.90
2017-03-08T05:15:48.796Z,18.90
2017-03-08T05:16:38.471Z,18.90
2017-03-08T05:17:39.493Z,18.90
2017-03-08T05:18:34.543Z,18.89
2017-03-08T05:19:48.641Z,18.89
2017-03-08T05:20:32.783Z,18.89
2017-03-08T05:21:34.126Z,18.90
2017-03-08T05:22:28.637Z,18.89
2017-03-08T05:23:34.431Z,18.89
2017-03-08T05:24:48.981Z,18.89
2017-03-08T05:25:37.724Z,18.89
2017-03-08T05:26:38.459Z,18.89
2017-03-08T05:27:38.920Z,18.89
2017-03-08T05:28:38.225Z,18.89
2017-03-08T05:29:35.221Z,18.89
2017-03-08T05:30:43.920Z,18.88
2017-03-08T05:31:33.952Z,18.89
2017-03-08T05:32:35.406Z,18.89
2017-03-08T05:33:37.394Z,18.88
2017-03-08T05:34:38.476Z,18.91
2017-03-08T05:35:37.821Z,18.89
2017-03-08T05:36:44.364Z,18.88
2017-03-08T05:37:35.273Z,18.89
2017-03-08T05:38:45.463Z,18.88
2017-03-08T05:39:33.625Z,18.89
2017-03-08T05:40:39.832Z,18.88
2017-03-08T05:41:33.695Z,18.89
2017-03-08T05:42:57.132Z,18.88
2017-03-08T05:43:41.053Z,18.88
2017-03-08T05:44:28.618Z,18.88
2017-03-08T05:45:51.417Z,18.88
2017-03-08T05:46:51.010Z,18.88
2017-03-08T05:47:38.439Z,18.88
2017-03-08T05:48:34.815Z,18.88
2017-03-08T05:49:33.158Z,18.88
2017-03-08T05:50:40.671Z,18.88
2017-03-08T05:51:46.800Z,18.88
2017-03-08T05:52:34.699Z,18.87
2017-03-08T05:53:36.918Z,18.88
2017-03-08T05:54:42.926Z,18.92
2017-03-08T05:55:32.912Z,18.86
2017-03-08T05:56:46.743Z,18.86
2017-03-08T05:57:35.785Z,18.86
2017-03-08T05:58:39.218Z,18.86
2017-03-08T06:00:12.704Z,18.86
2017-03-08T06:00:39.878Z,18.87
2017-03-08T06:01:43.012Z,18.87
2017-03-08T06:02:33.596Z,18.87
2017-03-08T06:03:38.790Z,18.87
2017-03-08T06:04:39.762Z,18.87
2017-03-08T06:05:41.859Z,18.85
2017-03-08T06:06:41.048Z,19.40
2017-03-08T06:07:42.774Z,19.45
2017-03-08T06:08:34.232Z,19.11
2017-03-08T06:09:42.703Z,18.96
2017-03-08T06:10:34.076Z,18.91
2017-03-08T06:11:28.260Z,18.89
2017-03-08T06:12:47.017Z,18.88
2017-03-08T06:13:38.067Z,18.87
2017-03-08T06:14:33.484Z,18.87
2017-03-08T06:15:39.553Z,18.86
2017-03-08T06:16:33.244Z,18.86
2017-03-08T06:17:35.791Z,18.85
2017-03-08T06:18:35.239Z,18.87
2017-03-08T06:19:34.598Z,18.85
2017-03-08T06:20:38.851Z,18.85
2017-03-08T06:21:33.253Z,18.85
2017-03-08T06:22:41.022Z,18.86
2017-03-08T06:23:34.050Z,18.87
2017-03-08T06:24:43.597Z,18.86
2017-03-08T06:25:29.286Z,18.92
2017-03-08T06:26:39.847Z,18.86
2017-03-08T06:27:33.060Z,18.86
2017-03-08T06:28:38.775Z,19.39
2017-03-08T06:29:22.338Z,19.44
2017-03-08T06:30:15.264Z,19.48
2017-03-08T06:31:27.640Z,19.50
2017-03-08T06:32:27.597Z,19.50
2017-03-08T06:33:14.264Z,19.51
2017-03-08T06:34:18.419Z,19.52
2017-03-08T06:35:19.740Z,19.54
2017-03-08T06:36:22.510Z,19.18
2017-03-08T06:37:23.267Z,19.01
2017-03-08T06:38:28.676Z,18.96
2017-03-08T06:39:18.693Z,18.96
2017-03-08T06:40:19.466Z,18.94
2017-03-08T06:41:21.412Z,18.94
2017-03-08T06:42:20.135Z,18.94
2017-03-08T06:43:16.806Z,18.94
2017-03-08T06:44:20.342Z,18.93
2017-03-08T06:45:19.062Z,18.93
2017-03-08T06:46:17.036Z,18.93
2017-03-08T06:47:20.147Z,18.93
2017-03-08T06:48:27.785Z,18.91
2017-03-08T06:49:47.486Z,18.90
2017-03-08T06:50:23.099Z,18.88
2017-03-08T06:51:25.077Z,18.87
2017-03-08T06:52:13.988Z,18.85
2017-03-08T06:53:19.535Z,18.84
2017-03-08T06:54:16.755Z,18.82
2017-03-08T06:55:23.545Z,18.79
2017-03-08T06:56:23.618Z,18.75
2017-03-08T06:57:22.828Z,18.76
2017-03-08T06:58:14.976Z,18.77
2017-03-08T06:59:18.206Z,18.79
2017-03-08T07:00:18.345Z,18.80
2017-03-08T07:01:16.601Z,18.79
2017-03-08T07:02:21.456Z,18.84
2017-03-08T07:03:17.501Z,18.80
2017-03-08T07:04:22.160Z,18.81
2017-03-08T07:05:18.318Z,18.83
2017-03-08T07:06:22.887Z,18.82
2017-03-08T07:07:33.410Z,18.81
2017-03-08T07:08:33.882Z,18.82
2017-03-08T07:09:33.428Z,18.83
2017-03-08T07:10:33.350Z,18.84
2017-03-08T07:11:42.112Z,18.85
2017-03-08T07:12:33.493Z,18.85
2017-03-08T07:13:28.653Z,18.86
2017-03-08T07:14:33.013Z,18.88
2017-03-08T07:15:28.272Z,18.87
2017-03-08T07:16:41.623Z,18.87
2017-03-08T07:17:33.623Z,18.87
2017-03-08T07:18:38.654Z,18.87
2017-03-08T07:19:41.304Z,18.94
2017-03-08T07:20:32.863Z,18.88
2017-03-08T07:21:27.091Z,18.88
2017-03-08T07:22:38.486Z,18.88
2017-03-08T07:23:24.284Z,18.88
2017-03-08T07:24:26.082Z,18.88
2017-03-08T07:25:33.634Z,18.89
2017-03-08T07:26:18.513Z,18.88
2017-03-08T07:27:40.938Z,18.88
2017-03-08T07:28:25.019Z,18.88
2017-03-08T07:29:33.101Z,18.89
2017-03-08T07:30:34.990Z,18.89
2017-03-08T07:31:23.148Z,18.89
2017-03-08T07:32:34.536Z,18.89
2017-03-08T07:33:33.583Z,18.90
2017-03-08T07:34:37.807Z,18.90
2017-03-08T07:35:32.610Z,18.90
2017-03-08T07:36:32.541Z,18.89
2017-03-08T07:37:27.928Z,18.90
2017-03-08T07:38:32.320Z,18.90
2017-03-08T07:39:38.219Z,18.90
2017-03-08T07:40:46.408Z,18.91
2017-03-08T07:41:39.390Z,18.91
2017-03-08T07:42:18.652Z,18.91
2017-03-08T07:43:32.863Z,18.91
2017-03-08T07:44:28.955Z,18.91
2017-03-08T07:45:42.893Z,18.92
2017-03-08T07:46:33.941Z,18.92
2017-03-08T07:47:37.477Z,18.92
2017-03-08T07:48:30.864Z,18.93
2017-03-08T07:49:29.870Z,18.93
2017-03-08T07:50:31.864Z,18.94
2017-03-08T07:51:27.702Z,18.92
2017-03-08T07:52:28.768Z,18.93
2017-03-08T07:53:27.369Z,18.93
2017-03-08T07:54:29.487Z,18.93
2017-03-08T07:55:25.417Z,18.93
2017-03-08T07:56:32.662Z,18.93
2017-03-08T07:57:27.870Z,18.93
2017-03-08T07:58:32.664Z,18.94
2017-03-08T07:59:27.968Z,18.94
2017-03-08T08:00:25.077Z,18.94
2017-03-08T08:01:33.405Z,18.94
2017-03-08T08:02:36.544Z,18.95
2017-03-08T08:03:32.630Z,18.94
2017-03-08T08:04:37.900Z,18.97
2017-03-08T08:05:47.338Z,18.94
2017-03-08T08:06:38.038Z,18.95
2017-03-08T08:07:27.898Z,18.95
2017-03-08T08:08:31.146Z,18.96
2017-03-08T08:09:20.502Z,18.96
2017-03-08T08:10:30.351Z,18.97
2017-03-08T08:11:49.017Z,18.96
2017-03-08T08:12:26.829Z,18.96
2017-03-08T08:13:41.326Z,18.96
2017-03-08T08:14:33.398Z,18.96
2017-03-08T08:15:29.054Z,18.96
2017-03-08T08:16:34.797Z,18.95
2017-03-08T08:17:29.225Z,18.96
2017-03-08T08:18:39.278Z,18.97
2017-03-08T08:19:32.448Z,18.97
2017-03-08T08:27:32.817Z,18.98
2017-03-08T08:28:23.712Z,18.98
2017-03-08T08:29:39.089Z,18.98
2017-03-08T08:30:33.389Z,18.98
2017-03-08T08:31:31.087Z,18.98
2017-03-08T08:32:37.749Z,18.97
2017-03-08T08:33:28.799Z,18.97
2017-03-08T08:34:33.914Z,18.97
2017-03-08T08:35:32.600Z,18.98
2017-03-08T08:36:32.382Z,18.98
2017-03-08T08:37:27.226Z,18.98
2017-03-08T08:38:32.907Z,18.97
2017-03-08T08:39:31.550Z,18.97
2017-03-08T08:40:34.383Z,18.97
2017-03-08T08:41:27.864Z,18.97
2017-03-08T08:42:33.574Z,18.97
2017-03-08T08:43:35.061Z,18.97
2017-03-08T08:44:32.433Z,19.00
2017-03-08T08:45:33.433Z,18.97
2017-03-08T08:46:33.994Z,18.96
2017-03-08T08:47:34.269Z,18.96
2017-03-08T09:25:33.447Z,18.99
2017-03-08T09:26:32.538Z,18.99
2017-03-08T09:27:36.299Z,18.99
2017-03-08T09:28:31.258Z,18.99
2017-03-08T09:29:41.950Z,18.98
2017-03-08T09:30:37.422Z,18.99
2017-03-08T09:31:34.415Z,18.99
2017-03-08T09:32:33.667Z,18.99
2017-03-08T09:33:29.144Z,18.99
2017-03-08T09:34:43.159Z,18.99
2017-03-08T09:35:35.018Z,19.00
2017-03-08T09:36:34.281Z,19.04
2017-03-08T09:37:26.946Z,19.00
2017-03-08T09:38:31.313Z,19.00
2017-03-08T09:39:32.777Z,19.00
2017-03-08T09:44:33.439Z,19.03
2017-03-08T09:45:28.489Z,19.03
2017-03-08T09:46:33.230Z,19.02
2017-03-08T09:47:32.598Z,19.03
2017-03-08T09:48:30.508Z,19.03
2017-03-08T09:49:33.403Z,19.04
2017-03-08T09:50:37.411Z,19.04
2017-03-08T09:51:38.948Z,19.04
2017-03-08T09:52:31.914Z,19.09
2017-03-08T09:53:27.750Z,19.09
2017-03-08T09:54:26.597Z,19.04
2017-03-08T09:55:29.277Z,19.04
2017-03-08T09:56:28.194Z,19.04
2017-03-08T09:57:34.292Z,19.03
2017-03-08T09:58:29.036Z,19.08
2017-03-08T09:59:38.513Z,19.03
2017-03-08T10:00:37.345Z,19.04
2017-03-08T10:01:27.473Z,19.03
2017-03-08T10:02:28.555Z,19.04
2017-03-08T10:03:38.347Z,19.04
2017-03-08T10:04:26.611Z,19.04
2017-03-08T10:05:38.150Z,19.06
2017-03-08T10:06:28.787Z,19.56
2017-03-08T10:07:37.851Z,19.64
2017-03-08T10:08:27.962Z,19.66
2017-03-08T10:09:32.859Z,19.68
2017-03-08T10:10:33.590Z,19.69
2017-03-08T10:11:37.560Z,19.70
2017-03-08T10:12:32.298Z,19.70
2017-03-08T10:13:33.342Z,19.71
2017-03-08T10:14:37.898Z,19.37
2017-03-08T10:15:38.594Z,19.17
2017-03-08T10:16:27.100Z,19.11
2017-03-08T10:17:27.872Z,19.10
2017-03-08T10:18:34.005Z,19.07
2017-03-08T10:19:33.872Z,19.06
2017-03-08T10:20:34.031Z,19.06
2017-03-08T10:21:33.591Z,19.05
2017-03-08T10:22:28.934Z,19.05
2017-03-08T10:23:27.912Z,19.05
2017-03-08T10:24:27.540Z,19.05
2017-03-08T10:25:27.763Z,19.05
2017-03-08T10:26:35.024Z,19.05
2017-03-08T10:27:28.425Z,19.05
2017-03-08T10:28:41.112Z,19.04
2017-03-08T10:29:26.068Z,19.05
2017-03-08T10:30:30.554Z,19.08
2017-03-08T10:31:33.454Z,19.58
2017-03-08T10:32:38.033Z,19.26
2017-03-08T10:33:39.916Z,19.13
2017-03-08T10:34:38.890Z,19.09
2017-03-08T10:35:27.759Z,19.07
2017-03-08T10:36:22.084Z,19.06
2017-03-08T10:37:33.625Z,19.06
2017-03-08T10:38:30.879Z,19.06
2017-03-08T10:39:28.400Z,19.05
2017-03-08T10:40:23.191Z,19.06
2017-03-08T10:41:29.280Z,19.05
2017-03-08T10:42:33.608Z,19.06
2017-03-08T10:43:32.316Z,19.05
2017-03-08T10:44:21.166Z,19.05
2017-03-08T10:45:33.896Z,19.06
2017-03-08T10:46:26.665Z,19.05
2017-03-08T10:47:31.860Z,19.05
2017-03-08T10:48:27.980Z,19.05
2017-03-08T10:49:36.145Z,19.06
2017-03-08T10:50:35.878Z,19.05
2017-03-08T10:51:25.957Z,19.05
2017-03-08T10:52:33.253Z,19.07
2017-03-08T10:53:27.531Z,19.08
2017-03-08T10:54:27.878Z,19.06
2017-03-08T10:55:29.573Z,19.07
2017-03-08T10:56:41.901Z,19.06
2017-03-08T10:57:30.436Z,19.05
2017-03-08T10:58:28.974Z,19.06
2017-03-08T10:59:23.871Z,19.06
2017-03-08T11:00:31.629Z,19.06
2017-03-08T11:01:32.776Z,19.06
2017-03-08T11:02:34.336Z,19.07
2017-03-08T11:03:33.998Z,19.06
2017-03-08T11:04:24.283Z,19.06
2017-03-08T11:05:26.898Z,19.07
2017-03-08T11:06:25.889Z,19.07
2017-03-08T11:07:32.643Z,19.07
2017-03-08T11:08:38.600Z,19.07
2017-03-08T11:09:21.883Z,19.07
2017-03-08T11:10:37.616Z,19.07
2017-03-08T11:11:27.770Z,19.07
2017-03-08T11:12:30.647Z,19.07
2017-03-08T11:13:32.581Z,19.07
2017-03-08T11:14:32.900Z,19.07
2017-03-08T11:15:33.154Z,19.07
2017-03-08T11:16:34.899Z,19.07
2017-03-08T11:17:31.722Z,19.08
2017-03-08T11:18:43.344Z,19.08
2017-03-08T11:19:36.517Z,19.07
2017-03-08T11:20:38.136Z,19.07
2017-03-08T11:21:28.419Z,19.07
2017-03-08T11:22:26.665Z,19.08
2017-03-08T11:23:28.023Z,19.08
2017-03-08T11:24:37.098Z,19.08
2017-03-08T11:25:28.528Z,19.08
2017-03-08T11:26:28.432Z,19.08
2017-03-08T11:27:27.532Z,19.07
2017-03-08T11:28:22.422Z,19.10
2017-03-08T11:29:32.724Z,19.08
2017-03-08T11:30:33.436Z,19.08
2017-03-08T11:31:30.364Z,19.09
2017-03-08T11:32:27.477Z,19.08
2017-03-08T11:33:29.928Z,19.08
2017-03-08T11:34:31.233Z,19.08
2017-03-08T11:35:31.244Z,19.08
2017-03-08T11:36:28.750Z,19.08
2017-03-08T11:37:29.004Z,19.08
2017-03-08T11:38:27.715Z,19.08
2017-03-08T11:39:33.374Z,19.08
2017-03-08T11:40:29.828Z,19.62
2017-03-08T11:41:33.240Z,19.68
2017-03-08T11:42:21.722Z,19.71
2017-03-08T11:43:26.627Z,19.72
2017-03-08T11:44:28.184Z,19.72
2017-03-08T11:45:22.706Z,19.38
2017-03-08T11:46:32.667Z,19.23
2017-03-08T11:47:32.807Z,19.15
2017-03-08T11:48:33.385Z,19.12
2017-03-08T11:49:33.467Z,19.11
2017-03-08T11:50:27.773Z,19.10
2017-03-08T11:51:27.737Z,19.10
2017-03-08T11:52:27.354Z,19.12
2017-03-08T11:53:27.952Z,19.09
2017-03-08T11:54:28.951Z,19.08
2017-03-08T11:55:38.997Z,19.08
2017-03-08T11:56:26.706Z,19.12
2017-03-08T11:57:34.360Z,19.08
2017-03-08T11:58:32.842Z,19.08
2017-03-08T11:59:27.850Z,19.08
2017-03-08T12:00:33.133Z,19.11
2017-03-08T12:01:27.097Z,19.08
2017-03-08T12:02:35.809Z,19.08
2017-03-08T12:03:28.195Z,19.07
2017-03-08T12:04:33.508Z,19.07
2017-03-08T12:05:34.387Z,19.07
2017-03-08T12:06:37.785Z,19.07
2017-03-08T12:07:38.899Z,19.07
2017-03-08T12:08:41.511Z,19.07
2017-03-08T12:09:28.282Z,19.07
2017-03-08T12:10:32.977Z,19.08
2017-03-08T12:11:34.010Z,19.07
2017-03-08T12:12:34.889Z,19.06
2017-03-08T12:13:28.133Z,19.06
2017-03-08T12:14:31.098Z,19.07
2017-03-08T12:15:32.504Z,19.07
2017-03-08T12:16:27.563Z,19.07
2017-03-08T12:17:33.790Z,19.07
2017-03-08T12:18:24.773Z,19.07
2017-03-08T12:19:32.040Z,19.07
2017-03-08T12:20:23.705Z,19.06
2017-03-08T12:21:38.262Z,19.06
2017-03-08T12:22:33.847Z,19.06
2017-03-08T12:23:43.787Z,19.06
2017-03-08T12:24:29.534Z,19.06
2017-03-08T12:25:22.072Z,19.06
2017-03-08T12:26:33.703Z,19.06
2017-03-08T12:27:43.970Z,19.06
2017-03-08T12:28:38.925Z,19.06
2017-03-08T12:29:28.682Z,19.05
2017-03-08T12:30:36.682Z,19.06
2017-03-08T12:31:51.639Z,19.05
2017-03-08T12:32:37.502Z,19.09
2017-03-08T12:33:39.982Z,19.05
2017-03-08T12:34:33.159Z,19.05
2017-03-08T12:35:33.915Z,19.05
2017-03-08T12:36:24.039Z,19.05
2017-03-08T12:37:43.242Z,19.05
2017-03-08T12:38:26.577Z,19.05
2017-03-08T12:39:27.621Z,19.05
2017-03-08T12:40:41.934Z,19.05
2017-03-08T12:41:38.307Z,19.05
2017-03-08T12:42:34.410Z,19.05
2017-03-08T12:43:28.887Z,19.04
2017-03-08T12:44:31.317Z,19.05
2017-03-08T12:45:29.204Z,19.05
2017-03-08T12:46:37.034Z,19.05
2017-03-08T12:47:28.190Z,19.04
2017-03-08T12:48:43.005Z,19.09
2017-03-08T12:49:29.855Z,19.05
2017-03-08T12:50:32.982Z,19.05
2017-03-08T12:51:38.894Z,19.04
2017-03-08T12:52:41.549Z,19.04
2017-03-08T12:53:34.975Z,19.05
2017-03-08T12:54:32.409Z,19.05
2017-03-08T12:55:33.940Z,19.05
2017-03-08T12:56:33.645Z,19.05
2017-03-08T12:57:33.571Z,19.05
2017-03-08T12:58:33.462Z,19.05
2017-03-08T12:59:27.452Z,19.05
2017-03-08T13:00:26.785Z,19.05
2017-03-08T13:01:36.105Z,19.05
2017-03-08T13:02:28.105Z,19.04
2017-03-08T13:03:33.570Z,19.04
2017-03-08T13:04:28.377Z,19.05
2017-03-08T13:05:37.874Z,19.04
2017-03-08T13:06:34.162Z,19.05
2017-03-08T13:07:38.449Z,19.07
2017-03-08T13:08:32.908Z,19.05
2017-03-08T13:09:41.918Z,19.04
2017-03-08T13:10:33.045Z,19.04
2017-03-08T13:11:28.822Z,19.04
2017-03-08T13:12:33.196Z,19.04
2017-03-08T13:13:28.839Z,19.04
2017-03-08T13:14:29.225Z,19.04
2017-03-08T13:15:34.083Z,19.04
2017-03-08T13:16:39.185Z,19.03
2017-03-08T13:17:29.009Z,19.04
2017-03-08T13:18:27.679Z,19.04
2017-03-08T13:19:28.769Z,19.04
2017-03-08T13:20:28.515Z,19.04
2017-03-08T13:21:28.661Z,19.05
2017-03-08T13:22:27.995Z,19.04
2017-03-08T13:23:34.857Z,19.07
2017-03-08T13:24:39.551Z,19.03
2017-03-08T13:25:38.904Z,19.04
2017-03-08T13:26:33.931Z,19.57
2017-03-08T13:27:34.744Z,19.63
2017-03-08T13:28:44.165Z,19.36
2017-03-08T13:29:32.611Z,19.13
2017-03-08T13:30:38.491Z,19.08
2017-03-08T13:31:40.107Z,19.05
2017-03-08T13:32:44.523Z,19.03
2017-03-08T13:33:33.177Z,19.02
2017-03-08T13:34:51.069Z,19.02
2017-03-08T13:35:38.409Z,19.01
2017-03-08T13:36:33.076Z,19.05
2017-03-08T13:37:34.298Z,19.01
2017-03-08T13:38:34.044Z,19.00
2017-03-08T13:39:38.834Z,19.01
2017-03-08T13:40:34.259Z,19.00
2017-03-08T13:41:43.648Z,18.98
2017-03-08T13:42:32.623Z,18.97